Time;durP1;ratioP1;P1;durP2;ratioP2;P2;SDS_P1;SDS_P2;PMS_P1;PMS_P2;Temp;Humidity;BMP_temperature;BMP_pressure;BME280_temperature;BME280_humidity;BME280_pressure;Samples;Min_cycle;Max_cycle;Signal;HPM_P1;HPM_P2
2022/07/08 00:00:05;;;;;;;26.00;4.47;;;;;;;13.96;100.00;101443.75;4989546;28;20415;-59
2022/07/08 00:02:32;;;;;;;19.15;3.60;;;;;;;13.93;100.00;101439.53;4992024;28;20061;-58
2022/07/08 00:04:59;;;;;;;23.17;4.28;;;;;;;13.93;100.00;101444.81;4988736;28;20075;-59
2022/07/08 00:07:26;;;;;;;20.40;4.22;;;;;;;13.92;100.00;101443.13;4988578;28;20092;-58
2022/07/08 00:09:54;;;;;;;16.90;3.85;;;;;;;13.87;100.00;101439.91;4989777;28;20056;-59
2022/07/08 00:12:21;;;;;;;24.10;4.22;;;;;;;13.87;100.00;101439.91;4994249;28;20049;-60
2022/07/08 00:14:48;;;;;;;18.30;4.00;;;;;;;13.86;100.00;101444.31;5013799;28;20058;-59
2022/07/08 00:17:15;;;;;;;23.70;4.50;;;;;;;13.86;100.00;101452.25;5013068;28;20467;-58
2022/07/08 00:19:42;;;;;;;21.35;4.30;;;;;;;13.85;100.00;101445.25;5006599;28;20056;-57
2022/07/08 00:22:10;;;;;;;22.33;4.43;;;;;;;13.81;100.00;101446.38;5008409;28;20104;-56
2022/07/08 00:24:37;;;;;;;25.38;5.38;;;;;;;13.80;100.00;101460.56;5011231;28;20050;-58
2022/07/08 00:27:04;;;;;;;24.67;4.65;;;;;;;13.77;100.00;101446.66;5010391;28;20057;-60
2022/07/08 00:29:31;;;;;;;20.25;4.00;;;;;;;13.76;100.00;101451.09;5004787;28;20073;-56
2022/07/08 00:31:58;;;;;;;24.30;4.55;;;;;;;13.73;100.00;101450.44;5005505;28;20057;-58
2022/07/08 00:34:26;;;;;;;24.70;3.92;;;;;;;13.71;100.00;101453.19;5015771;28;21429;-56
2022/07/08 00:36:53;;;;;;;28.60;5.05;;;;;;;13.71;100.00;101452.31;4987733;28;20049;-55
2022/07/08 00:39:20;;;;;;;18.08;4.20;;;;;;;13.70;100.00;101466.50;5007776;28;20061;-57
2022/07/08 00:41:47;;;;;;;28.42;5.03;;;;;;;13.69;100.00;101460.38;5008037;28;20050;-59
2022/07/08 00:44:14;;;;;;;31.70;4.88;;;;;;;13.68;100.00;101463.94;4987167;28;20049;-56
2022/07/08 00:46:42;;;;;;;22.63;4.93;;;;;;;13.66;100.00;101466.69;4988764;28;20057;-58
2022/07/08 00:49:09;;;;;;;21.52;4.93;;;;;;;13.64;100.00;101468.56;5006408;28;20046;-56
2022/07/08 00:51:39;;;;;;;34.55;6.63;;;;;;;13.62;100.00;101467.78;5007148;28;20146;-59
2022/07/08 00:54:07;;;;;;;19.48;4.20;;;;;;;13.64;100.00;101467.69;5012687;28;20064;-57
2022/07/08 00:56:34;;;;;;;25.35;4.63;;;;;;;13.62;100.00;101472.25;4985976;28;20601;-56
2022/07/08 00:59:01;;;;;;;20.20;4.95;;;;;;;13.60;100.00;101469.69;5015548;28;20056;-56
2022/07/08 01:01:28;;;;;;;28.38;4.95;;;;;;;13.57;100.00;101483.09;5014008;28;20058;-59
2022/07/08 01:03:56;;;;;;;25.85;4.40;;;;;;;13.58;100.00;101476.84;5008745;28;20056;-58
2022/07/08 01:06:23;;;;;;;20.10;4.32;;;;;;;13.57;100.00;101491.03;5009465;28;20069;-58
2022/07/08 01:08:50;;;;;;;26.73;4.93;;;;;;;13.57;100.00;101483.09;5007564;28;20046;-59
2022/07/08 01:11:17;;;;;;;25.25;4.60;;;;;;;13.57;100.00;101488.38;5002789;28;20042;-57
2022/07/08 01:13:45;;;;;;;24.92;5.53;;;;;;;13.55;100.00;101487.59;5007513;28;20479;-57
2022/07/08 01:16:12;;;;;;;17.20;4.20;;;;;;;13.56;100.00;101491.13;4991672;28;20557;-54
2022/07/08 01:18:40;;;;;;;21.42;4.88;;;;;;;13.57;100.00;101496.31;5005125;28;20058;-57
2022/07/08 01:21:08;;;;;;;18.65;4.45;;;;;;;13.53;100.00;101489.50;5003998;28;20042;-57
2022/07/08 01:23:35;;;;;;;31.25;5.40;;;;;;;13.52;100.00;101489.59;5011415;28;20065;-58
2022/07/08 01:26:09;;;;;;;29.70;5.53;;;;;;;13.52;100.00;101487.78;5007846;28;20045;-57
2022/07/08 01:28:39;;;;;;;30.25;5.80;;;;;;;13.52;100.00;101482.50;5006492;28;20037;-55
2022/07/08 01:31:08;;;;;;;27.73;5.65;;;;;;;13.54;100.00;101485.06;5005615;28;20046;-59
2022/07/08 01:33:36;;;;;;;25.08;5.65;;;;;;;13.54;100.00;101487.69;5019336;28;20045;-59
2022/07/08 01:36:03;;;;;;;26.58;5.68;;;;;;;13.53;100.00;101501.88;5008096;28;20057;-59
2022/07/08 01:38:31;;;;;;;24.35;5.25;;;;;;;13.54;100.00;101498.28;5012683;28;20050;-60
2022/07/08 01:40:59;;;;;;;19.20;4.55;;;;;;;13.56;100.00;101499.91;5011732;28;20061;-59
2022/07/08 01:43:27;;;;;;;30.25;6.05;;;;;;;13.58;100.00;101500.66;4995795;28;20050;-58
2022/07/08 01:45:54;;;;;;;31.45;5.30;;;;;;;13.62;100.00;101502.19;5010829;28;20073;-57
2022/07/08 01:48:21;;;;;;;30.38;5.85;;;;;;;13.67;100.00;101504.56;5006766;28;20459;-58
2022/07/08 01:50:49;;;;;;;24.33;5.20;;;;;;;13.67;100.00;101500.13;5006886;28;20042;-58
2022/07/08 01:53:16;;;;;;;24.25;5.88;;;;;;;13.69;100.00;101505.34;5013631;28;20541;-60
2022/07/08 01:55:43;;;;;;;33.83;5.47;;;;;;;13.68;100.00;101507.13;5007871;28;20054;-57
2022/07/08 01:58:10;;;;;;;22.17;5.60;;;;;;;13.69;100.00;101505.34;5008249;28;20054;-58
2022/07/08 02:00:37;;;;;;;30.95;5.55;;;;;;;13.70;100.00;101501.75;5008457;28;20073;-59
2022/07/08 02:03:05;;;;;;;34.83;5.75;;;;;;;13.73;100.00;101506.00;5011741;28;20058;-55
2022/07/08 02:05:34;;;;;;;29.25;5.72;;;;;;;13.71;100.00;101515.84;5008710;28;20366;-59
2022/07/08 02:08:04;;;;;;;24.38;5.82;;;;;;;13.69;100.00;101515.94;5008963;28;20666;-58
2022/07/08 02:13:18;;;;;;;26.73;6.60;;;;;;;13.76;100.00;101517.25;5005300;28;20487;-55
2022/07/08 02:15:46;;;;;;;29.38;5.40;;;;;;;13.76;100.00;101513.78;5009253;28;20057;-58
2022/07/08 02:18:13;;;;;;;16.73;4.63;;;;;;;13.79;100.00;101529.47;4978479;28;20085;-59
2022/07/08 02:20:40;;;;;;;28.00;5.28;;;;;;;13.80;100.00;101508.22;5011422;28;20084;-59
2022/07/08 02:23:07;;;;;;;24.25;5.70;;;;;;;13.80;100.00;101510.84;5011131;28;20513;-57
2022/07/08 02:25:35;;;;;;;25.45;5.25;;;;;;;13.78;100.00;101528.63;5012521;28;20541;-58
2022/07/08 02:28:02;;;;;;;29.70;5.32;;;;;;;13.76;100.00;101522.56;5017826;28;20121;-59
2022/07/08 02:33:18;;;;;;;24.88;5.05;;;;;;;13.74;100.00;101531.53;4931572;29;20052;-59
2022/07/08 02:35:46;;;;;;;22.55;5.20;;;;;;;13.71;100.00;101529.06;4928249;28;20059;-56
2022/07/08 02:38:13;;;;;;;26.30;5.35;;;;;;;13.72;100.00;101538.69;4933016;29;20140;-59
2022/07/08 02:40:40;;;;;;;25.17;5.78;;;;;;;13.73;100.00;101537.75;4928364;29;20509;-59
2022/07/08 02:43:10;;;;;;;26.73;6.32;;;;;;;13.76;100.00;101543.72;4912823;29;20535;-60
2022/07/08 02:45:38;;;;;;;23.98;5.72;;;;;;;13.82;100.00;101551.31;4928973;29;20417;-59
2022/07/08 02:48:05;;;;;;;33.53;6.85;;;;;;;13.85;100.00;101534.41;4933236;29;20053;-61
2022/07/08 02:50:33;;;;;;;25.92;5.22;;;;;;;13.90;100.00;101548.22;4930800;29;20060;-59
2022/07/08 02:53:00;;;;;;;32.22;5.20;;;;;;;13.91;100.00;101547.28;4935497;28;20504;-58
2022/07/08 02:55:27;;;;;;;22.60;5.60;;;;;;;13.91;100.00;101557.88;4924161;29;20106;-59
2022/07/08 02:57:54;;;;;;;26.40;5.30;;;;;;;13.94;100.00;101550.59;4928049;29;20074;-58
2022/07/08 03:00:22;;;;;;;19.38;4.90;;;;;;;13.95;100.00;101551.44;4925779;29;20418;-60
2022/07/08 03:02:49;;;;;;;38.03;6.30;;;;;;;13.98;100.00;101550.44;4922032;29;20052;-58
2022/07/08 03:05:17;;;;;;;16.77;4.20;;;;;;;13.99;100.00;101558.28;4927785;28;20734;-56
2022/07/08 03:07:44;;;;;;;21.77;5.40;;;;;;;13.99;100.00;101555.63;4930644;29;20062;-59
2022/07/08 03:10:11;;;;;;;33.15;4.68;;;;;;;13.98;100.00;101559.22;4930456;29;20058;-60
2022/07/08 03:12:39;;;;;;;22.83;5.30;;;;;;;13.99;100.00;101557.44;4928254;29;20142;-58
2022/07/08 03:15:06;;;;;;;26.70;5.25;;;;;;;14.00;100.00;101564.41;4927103;29;20060;-60
2022/07/08 03:17:33;;;;;;;38.35;5.22;;;;;;;13.98;100.00;101572.47;4936099;28;20066;-58
2022/07/08 03:20:07;;;;;;;19.90;5.00;;;;;;;13.98;100.00;101575.09;4927767;29;20075;-60
2022/07/08 03:22:34;;;;;;;21.80;4.65;;;;;;;14.01;100.00;101576.75;4929656;29;20070;-60
2022/07/08 03:25:02;;;;;;;19.73;4.55;;;;;;;14.02;100.00;101571.34;4928769;28;20059;-59
2022/07/08 03:27:29;;;;;;;24.42;4.85;;;;;;;14.03;100.00;101573.03;4931006;28;20059;-58
2022/07/08 03:29:56;;;;;;;22.00;4.35;;;;;;;14.04;100.00;101587.97;4930196;29;20048;-59
2022/07/08 03:32:24;;;;;;;26.45;5.93;;;;;;;14.04;100.00;101587.97;4929840;28;20074;-61
2022/07/08 03:34:51;;;;;;;22.88;4.85;;;;;;;14.09;100.00;101587.72;4928213;29;20508;-59
2022/07/08 03:37:18;;;;;;;16.67;4.30;;;;;;;14.15;100.00;101584.72;4917068;29;20059;-60
2022/07/08 03:39:45;;;;;;;23.00;5.03;;;;;;;14.14;100.00;101596.25;4926533;28;20059;-58
2022/07/08 03:42:12;;;;;;;27.23;4.88;;;;;;;14.18;100.00;101603.06;4927898;29;20470;-60
2022/07/08 03:44:39;;;;;;;36.88;5.28;;;;;;;14.21;100.00;101612.63;4942937;28;20058;-59
2022/07/08 03:47:06;;;;;;;24.55;5.28;;;;;;;14.23;100.00;101616.91;4929417;29;20047;-61
2022/07/08 03:49:34;;;;;;;26.17;5.63;;;;;;;14.28;100.00;101619.28;4924467;29;20457;-60
2022/07/08 03:52:01;;;;;;;27.00;5.70;;;;;;;14.25;100.00;101624.75;4930255;28;20051;-59
2022/07/08 03:54:28;;;;;;;17.65;4.38;;;;;;;14.29;100.00;101626.28;4928348;29;20056;-60
2022/07/08 03:56:56;;;;;;;28.10;4.85;;;;;;;14.28;100.00;101625.44;4936310;29;20110;-58
2022/07/08 03:59:23;;;;;;;17.50;3.92;;;;;;;14.33;100.00;101619.88;4932335;29;20508;-60
2022/07/08 04:01:50;;;;;;;22.48;4.65;;;;;;;14.37;100.00;101634.66;4929015;28;20050;-59
2022/07/08 04:04:21;;;;;;;19.98;4.50;;;;;;;14.37;100.00;101634.66;4925394;29;20052;-57
2022/07/08 04:06:49;;;;;;;22.92;4.57;;;;;;;14.36;100.00;101643.50;4927478;29;20052;-61
2022/07/08 04:09:17;;;;;;;19.73;4.25;;;;;;;14.39;100.00;101638.03;4927740;29;20485;-61
2022/07/08 04:11:46;;;;;;;24.67;4.95;;;;;;;14.36;100.00;101647.03;4932633;28;20083;-59
2022/07/08 04:14:13;;;;;;;30.35;5.90;;;;;;;14.38;100.00;101647.78;4932145;29;20516;-60
2022/07/08 04:16:40;;;;;;;30.00;5.25;;;;;;;14.32;100.00;101644.63;4929971;28;20056;-60
2022/07/08 04:19:08;;;;;;;22.73;4.93;;;;;;;14.37;100.00;101646.09;4894702;29;20048;-58
2022/07/08 04:21:35;;;;;;;21.50;4.57;;;;;;;14.41;100.00;101646.78;4929135;29;20064;-58
2022/07/08 04:24:02;;;;;;;28.38;5.35;;;;;;;14.48;100.00;101658.72;4934718;29;20071;-60
2022/07/08 04:26:31;;;;;;;27.38;5.53;;;;;;;14.51;100.00;101653.25;4929694;29;20060;-58
2022/07/08 04:28:59;;;;;;;29.10;5.75;;;;;;;14.45;100.00;101656.22;4933435;29;20075;-58
2022/07/08 04:31:27;;;;;;;21.23;5.47;;;;;;;14.44;100.00;101660.66;4926536;28;20619;-58
2022/07/08 04:33:54;;;;;;;25.65;5.03;;;;;;;14.50;100.00;101662.16;4928933;29;20130;-60
2022/07/08 04:36:22;;;;;;;24.88;5.40;;;;;;;14.57;100.00;101652.03;4926235;28;20062;-59
2022/07/08 04:38:49;;;;;;;15.05;3.60;;;;;;;14.57;100.00;101654.69;4925853;29;20058;-59
2022/07/08 04:41:16;;;;;;;18.85;3.78;;;;;;;14.64;100.00;101664.84;4937696;28;20055;-59
2022/07/08 04:43:43;;;;;;;25.10;5.00;;;;;;;14.68;100.00;101673.47;4934977;29;20404;-58
2022/07/08 04:46:11;;;;;;;19.48;4.40;;;;;;;14.67;100.00;101672.59;4932366;28;20584;-61
2022/07/08 04:48:39;;;;;;;21.13;4.90;;;;;;;14.71;100.00;101688.31;4929618;29;20837;-60
2022/07/08 04:51:07;;;;;;;18.50;4.78;;;;;;;14.76;100.00;101689.75;4913721;29;20087;-59
2022/07/08 04:53:34;;;;;;;19.70;4.28;;;;;;;14.81;100.00;101681.50;4932672;29;20409;-58
2022/07/08 04:56:01;;;;;;;23.42;4.38;;;;;;;14.88;100.00;101675.75;4927825;29;20054;-56
2022/07/08 04:58:29;;;;;;;18.40;4.28;;;;;;;14.90;100.00;101695.09;4925827;29;20056;-55
2022/07/08 05:00:57;;;;;;;24.15;4.03;;;;;;;14.94;100.00;101690.44;4928043;29;20048;-59
2022/07/08 05:03:24;;;;;;;24.23;4.82;;;;;;;14.90;100.00;101686.25;4936321;29;20066;-60
2022/07/08 05:05:53;;;;;;;23.85;4.10;;;;;;;14.99;100.00;101692.81;4931588;28;20060;-58
2022/07/08 05:08:20;;;;;;;21.00;3.83;;;;;;;15.00;100.00;101698.06;4942635;29;20083;-54
2022/07/08 05:10:48;;;;;;;18.67;3.65;;;;;;;14.93;100.00;101686.09;4933655;28;20043;-59
2022/07/08 05:13:15;;;;;;;15.45;3.80;;;;;;;15.03;100.00;101689.88;4930692;29;20062;-56
2022/07/08 05:15:42;;;;;;;13.93;3.50;;;;;;;15.12;100.00;101696.44;4924874;29;20055;-60
2022/07/08 05:18:10;;;;;;;19.38;4.55;;;;;;;15.06;100.00;101699.47;4918163;29;20062;-58
2022/07/08 05:20:37;;;;;;;15.82;3.92;;;;;;;14.94;100.00;101701.06;4922416;28;20074;-60
2022/07/08 05:23:05;;;;;;;18.00;4.45;;;;;;;14.97;100.00;101711.47;4932149;29;20051;-59
2022/07/08 05:25:32;;;;;;;20.50;4.07;;;;;;;15.02;100.00;101705.91;4928704;28;20055;-59
2022/07/08 05:27:59;;;;;;;20.95;4.25;;;;;;;15.00;100.00;101715.75;4927676;29;20063;-56
2022/07/08 05:30:27;;;;;;;20.63;4.53;;;;;;;15.06;100.00;101712.72;4930063;28;20079;-58
2022/07/08 05:32:54;;;;;;;16.02;4.38;;;;;;;14.98;100.00;101717.63;4925344;29;20074;-59
2022/07/08 05:35:21;;;;;;;19.58;5.03;;;;;;;14.96;100.00;101736.28;4929420;29;20067;-58
2022/07/08 05:37:50;;;;;;;19.17;5.13;;;;;;;14.92;100.00;101726.81;4931202;29;20062;-61
2022/07/08 05:40:17;;;;;;;21.27;6.35;;;;;;;14.82;100.00;101729.16;4931465;29;20043;-59
2022/07/08 05:42:44;;;;;;;15.50;3.92;;;;;;;14.84;100.00;101737.00;4932114;29;20048;-60
2022/07/08 05:45:13;;;;;;;23.85;4.47;;;;;;;14.78;100.00;101740.03;4934901;28;20547;-59
2022/07/08 05:47:40;;;;;;;16.55;4.13;;;;;;;14.79;100.00;101734.63;4915804;29;20528;-61
2022/07/08 05:50:07;;;;;;;24.52;4.57;;;;;;;14.52;100.00;101738.91;4896913;29;20430;-60
2022/07/08 05:52:35;;;;;;;16.27;4.40;;;;;;;14.39;100.00;101744.00;4932390;29;20059;-60
2022/07/08 05:55:02;;;;;;;21.10;4.97;;;;;;;14.49;100.00;101749.66;4927602;28;21001;-60
2022/07/08 05:57:29;;;;;;;20.55;4.35;;;;;;;14.38;100.00;101737.84;4931664;29;20063;-61
2022/07/08 05:59:57;;;;;;;14.98;3.58;;;;;;;14.41;100.00;101740.34;4932257;29;20083;-59
2022/07/08 06:02:25;;;;;;;17.58;4.10;;;;;;;14.32;100.00;101758.53;4941118;29;20555;-61
2022/07/08 06:04:52;;;;;;;17.42;4.57;;;;;;;14.36;100.00;101755.66;4925713;29;20059;-60
2022/07/08 06:07:19;;;;;;;17.50;3.30;;;;;;;14.39;100.00;101765.19;4923028;29;20115;-60
2022/07/08 06:09:46;;;;;;;14.98;3.58;;;;;;;14.44;100.00;101766.63;4925240;29;20058;-62
2022/07/08 06:12:14;;;;;;;15.30;3.83;;;;;;;14.34;100.00;101773.41;4928399;29;20052;-58
2022/07/08 06:14:41;;;;;;;14.13;4.22;;;;;;;14.37;100.00;101773.25;4927210;29;20122;-58
2022/07/08 06:17:08;;;;;;;15.93;3.88;;;;;;;14.42;100.00;101771.19;4923124;29;20052;-59
2022/07/08 06:19:35;;;;;;;15.48;4.13;;;;;;;14.42;100.00;101771.19;4931565;29;20057;-58
2022/07/08 06:22:03;;;;;;;18.58;3.80;;;;;;;14.39;100.00;101773.16;4933354;29;20047;-54
2022/07/08 06:24:30;;;;;;;17.42;4.35;;;;;;;14.40;100.00;101785.44;4926756;29;20090;-60
2022/07/08 06:26:57;;;;;;;14.85;3.50;;;;;;;14.54;100.00;101780.25;4923956;29;20039;-58
2022/07/08 06:29:24;;;;;;;17.25;4.47;;;;;;;14.53;100.00;101788.28;4930563;29;20052;-60
2022/07/08 06:31:51;;;;;;;20.85;3.70;;;;;;;14.63;100.00;101786.81;4913179;29;20055;-63
2022/07/08 06:34:19;;;;;;;16.85;3.90;;;;;;;14.54;100.00;101788.19;4928783;29;20478;-59
2022/07/08 06:36:46;;;;;;;16.98;3.00;;;;;;;14.52;100.00;101800.69;4923958;29;20679;-50
2022/07/08 06:39:13;;;;;;;22.10;3.38;;;;;;;14.62;98.94;101799.22;4919670;29;20062;-62
2022/07/08 06:41:40;;;;;;;21.10;3.17;;;;;;;14.71;99.12;101804.94;4909163;29;20056;-60
2022/07/08 06:44:07;;;;;;;20.20;3.70;;;;;;;14.74;98.40;101799.47;4930151;29;20055;-61
2022/07/08 06:46:34;;;;;;;15.77;3.35;;;;;;;14.67;97.59;101802.47;4926853;29;20066;-61
2022/07/08 06:49:02;;;;;;;11.30;3.53;;;;;;;14.64;97.04;101805.31;4932333;29;20055;-60
2022/07/08 06:51:29;;;;;;;16.40;3.53;;;;;;;14.64;97.32;101813.25;4931240;29;20194;-60
2022/07/08 06:56:42;;;;;;;;;;;;;;;14.56;98.04;101823.44;4940948;28;20066;-61
2022/07/08 06:59:09;;;;;;;16.13;3.40;;;;;;;14.56;97.75;101810.19;4935124;28;19942;-61
2022/07/08 07:01:36;;;;;;;20.67;3.72;;;;;;;14.48;98.76;101824.78;4932111;29;20066;-59
2022/07/08 07:04:04;;;;;;;22.70;4.45;;;;;;;14.37;98.88;101818.28;4935824;28;20052;-60
2022/07/08 07:06:31;;;;;;;13.25;3.20;;;;;;;14.32;99.07;101809.75;4910358;29;20055;-60
2022/07/08 07:08:58;;;;;;;18.23;3.13;;;;;;;14.35;99.18;101814.84;4916965;29;20055;-59
2022/07/08 07:11:26;;;;;;;22.40;4.07;;;;;;;14.32;99.04;101809.75;4929008;28;20051;-61
2022/07/08 07:13:53;;;;;;;21.33;4.22;;;;;;;14.40;99.05;101812.78;4936850;29;20558;-61
2022/07/08 07:16:20;;;;;;;23.08;4.22;;;;;;;14.52;98.26;101813.09;4933069;28;20062;-59
2022/07/08 07:18:48;;;;;;;18.08;3.75;;;;;;;14.58;98.07;101810.09;4924583;29;20059;-59
2022/07/08 07:21:15;;;;;;;20.40;4.60;;;;;;;14.59;97.55;101815.31;4923282;29;20048;-59
2022/07/08 07:23:42;;;;;;;21.67;4.13;;;;;;;14.53;97.84;101818.28;4933880;29;20408;-66
2022/07/08 07:26:09;;;;;;;16.05;3.95;;;;;;;14.46;96.54;101827.50;4929459;28;20056;-64
2022/07/08 07:28:37;;;;;;;24.88;3.70;;;;;;;14.53;96.69;101826.25;4919866;29;20066;-59
2022/07/08 07:31:04;;;;;;;19.75;3.70;;;;;;;14.49;96.66;101831.81;4920615;29;20056;-59
2022/07/08 07:33:31;;;;;;;17.63;4.95;;;;;;;14.51;96.00;101832.59;4920327;29;20068;-62
2022/07/08 07:35:59;;;;;;;15.65;3.63;;;;;;;14.47;95.42;101837.16;4926172;29;20052;-67
2022/07/08 07:38:26;;;;;;;17.20;3.53;;;;;;;14.40;94.65;101834.00;4912261;29;20100;-60
2022/07/08 07:40:53;;;;;;;20.13;4.55;;;;;;;14.45;94.37;101839.03;4921699;29;20453;-60
2022/07/08 07:43:21;;;;;;;16.80;3.25;;;;;;;14.49;94.21;101842.41;4924147;29;20131;-61
2022/07/08 07:45:48;;;;;;;22.10;3.80;;;;;;;14.52;93.31;101851.03;4913622;29;20512;-60
2022/07/08 07:48:16;;;;;;;25.85;3.85;;;;;;;14.47;92.81;101847.75;4926307;29;20102;-61
2022/07/08 07:50:43;;;;;;;24.77;3.83;;;;;;;14.59;91.77;101857.72;4907071;29;20496;-58
2022/07/08 07:53:12;;;;;;;20.98;4.40;;;;;;;14.77;91.09;101860.25;4934070;29;20059;-58
2022/07/08 07:55:39;;;;;;;17.05;3.90;;;;;;;14.88;89.17;101855.19;4913773;29;20253;-58
2022/07/08 07:58:06;;;;;;;17.55;3.47;;;;;;;15.01;88.07;101842.94;4919903;29;20051;-58
2022/07/08 08:00:33;;;;;;;12.23;2.85;;;;;;;15.15;88.00;101842.13;4908556;29;20092;-59
2022/07/08 08:03:00;;;;;;;16.52;3.25;;;;;;;15.30;87.88;101835.91;4922943;29;20744;-59
2022/07/08 08:05:28;;;;;;;13.85;3.10;;;;;;;15.36;86.86;101843.53;4915407;29;20047;-59
2022/07/08 08:07:55;;;;;;;16.23;3.53;;;;;;;15.30;87.50;101838.56;4922036;29;20056;-57
2022/07/08 08:10:22;;;;;;;22.95;3.78;;;;;;;15.36;86.03;101843.53;4923552;28;20059;-58
2022/07/08 08:12:49;;;;;;;18.85;4.05;;;;;;;15.34;86.49;101847.19;4929906;29;20074;-56
2022/07/08 08:15:16;;;;;;;17.08;3.40;;;;;;;15.43;86.50;101839.53;4925064;28;20060;-58
2022/07/08 08:17:44;;;;;;;22.15;3.47;;;;;;;15.45;85.56;101844.78;4919705;29;20039;-58
2022/07/08 08:20:12;;;;;;;14.68;3.35;;;;;;;15.65;83.23;101852.41;4921749;29;21705;-58
2022/07/08 08:22:39;;;;;;;14.57;3.35;;;;;;;15.77;81.96;101855.28;4932341;29;20063;-60
2022/07/08 08:25:27;;;;;;;20.83;3.58;;;;;;;15.60;80.70;101854.47;4923894;29;20519;-59
2022/07/08 08:27:54;;;;;;;13.23;2.75;;;;;;;15.76;80.72;101862.41;4926368;29;20483;-58
2022/07/08 08:30:22;;;;;;;22.20;3.13;;;;;;;15.86;79.85;101860.88;4925009;29;20052;-59
2022/07/08 08:32:49;;;;;;;16.92;3.80;;;;;;;15.87;80.06;101870.53;4926446;29;20828;-61
2022/07/08 08:35:16;;;;;;;18.23;3.78;;;;;;;15.79;79.95;101869.31;4920502;29;20392;-60
2022/07/08 08:37:44;;;;;;;12.25;2.72;;;;;;;15.97;79.10;101864.66;4924858;29;20433;-61
2022/07/08 08:40:11;;;;;;;13.23;2.67;;;;;;;15.80;78.65;101853.25;4920839;29;20491;-59
2022/07/08 08:42:40;;;;;;;17.95;3.08;;;;;;;15.89;78.52;101858.00;4930500;29;20690;-60
2022/07/08 08:45:09;;;;;;;18.30;4.22;;;;;;;15.85;79.11;101852.97;4921745;29;20070;-61
2022/07/08 08:47:36;;;;;;;14.45;3.53;;;;;;;15.83;79.39;101861.06;4909066;29;20397;-59
2022/07/08 08:52:54;;;;;;;19.52;2.80;;;;;;;15.91;78.90;101864.09;4925912;29;20055;-59
2022/07/08 08:55:28;;;;;;;16.42;3.08;;;;;;;16.05;77.95;101875.66;4919052;29;21405;-59
2022/07/08 08:58:05;;;;;;;12.52;2.60;;;;;;;16.25;77.12;101890.34;4928314;28;20056;-60
2022/07/08 09:00:33;;;;;;;13.98;3.28;;;;;;;16.10;76.04;101887.72;4910271;29;20122;-58
2022/07/08 09:03:01;;;;;;;19.45;3.45;;;;;;;16.18;76.11;101885.44;4922887;29;20059;-59
2022/07/08 09:05:28;;;;;;;12.88;2.63;;;;;;;16.16;76.51;101889.13;4925306;28;20078;-59
2022/07/08 09:07:56;;;;;;;16.50;3.17;;;;;;;16.33;76.13;101888.09;4928651;29;20069;-59
2022/07/08 09:10:23;;;;;;;16.85;2.90;;;;;;;16.03;74.83;101883.75;4925569;28;20539;-58
2022/07/08 09:13:08;;;;;;;12.98;3.13;;;;;;;16.12;75.77;101890.25;4918034;29;20062;-58
2022/07/08 09:15:44;;;;;;;14.25;3.03;;;;;;;16.13;75.71;101882.22;4923628;29;20055;-61
2022/07/08 09:18:13;;;;;;;14.57;2.90;;;;;;;16.25;75.18;101871.75;4924668;29;20056;-57
2022/07/08 09:20:49;;;;;;;11.73;2.75;;;;;;;16.12;76.13;101880.53;4927445;28;20374;-58
2022/07/08 09:23:22;;;;;;;12.15;2.35;;;;;;;16.31;75.13;101892.66;4920276;29;20051;-59
2022/07/08 09:25:51;;;;;;;15.15;2.63;;;;;;;16.24;75.33;101878.03;4926150;29;20071;-58
2022/07/08 09:28:35;;;;;;;12.73;3.42;;;;;;;16.23;74.90;101884.31;4926861;29;20071;-59
2022/07/08 09:31:08;;;;;;;13.27;2.35;;;;;;;16.35;73.55;101888.84;4925147;29;20055;-59
2022/07/08 09:33:36;;;;;;;10.55;2.67;;;;;;;16.37;73.79;101889.59;4927828;28;20048;-60
2022/07/08 09:36:04;;;;;;;11.63;2.10;;;;;;;16.41;73.03;101891.13;4921648;29;20145;-60
2022/07/08 09:38:36;;;;;;;16.83;2.85;;;;;;;16.28;73.12;101890.19;4920101;29;20059;-58
2022/07/08 09:41:05;;;;;;;9.32;2.20;;;;;;;16.24;73.77;101889.50;4906693;29;20413;-59
2022/07/08 09:43:33;;;;;;;12.32;2.97;;;;;;;16.40;73.85;101897.38;4922542;29;20068;-56
2022/07/08 09:46:06;;;;;;;13.77;2.30;;;;;;;16.50;73.00;101898.50;4906829;29;20444;-60
2022/07/08 09:48:34;;;;;;;12.23;2.63;;;;;;;16.44;72.13;101894.44;4927071;29;20051;-59
2022/07/08 09:51:09;;;;;;;19.15;3.20;;;;;;;16.53;72.04;101890.34;4927555;29;20052;-58
2022/07/08 09:53:38;;;;;;;12.32;2.50;;;;;;;16.57;72.48;101889.19;4934347;29;20056;-60
2022/07/08 09:56:07;;;;;;;13.52;2.38;;;;;;;16.76;71.79;101888.91;4922476;28;20063;-60
2022/07/08 09:58:35;;;;;;;11.20;2.90;;;;;;;16.68;71.96;101889.34;4926299;29;20060;-57
2022/07/08 10:01:03;;;;;;;15.82;2.67;;;;;;;16.60;72.64;101888.97;4941167;28;20165;-60
2022/07/08 10:03:30;;;;;;;10.88;2.53;;;;;;;16.82;70.79;101888.47;4939514;29;20146;-60
2022/07/08 10:05:59;;;;;;;14.10;3.13;;;;;;;16.67;70.29;101898.28;4935739;29;20365;-60
2022/07/08 10:08:27;;;;;;;14.15;2.45;;;;;;;16.41;71.83;101896.44;4934252;29;20040;-58
2022/07/08 10:10:57;;;;;;;13.95;3.08;;;;;;;16.46;71.79;101897.84;4938026;28;20043;-58
2022/07/08 10:13:25;;;;;;;12.20;2.55;;;;;;;16.76;71.57;101914.63;4932896;29;20051;-59
2022/07/08 10:15:56;;;;;;;11.13;2.50;;;;;;;16.73;70.57;101914.81;4929210;29;20052;-59
2022/07/08 10:18:30;;;;;;;15.02;2.67;;;;;;;17.03;70.41;101912.00;4933345;28;20055;-59
2022/07/08 10:21:00;;;;;;;14.27;2.75;;;;;;;17.31;69.94;101911.00;4928269;29;20060;-58
2022/07/08 10:23:37;;;;;;;13.95;2.78;;;;;;;17.46;67.33;101904.63;4925335;29;20060;-58
2022/07/08 10:26:04;;;;;;;12.55;2.60;;;;;;;18.07;66.08;101891.63;4926872;29;20064;-57
2022/07/08 10:28:36;;;;;;;12.88;2.38;;;;;;;18.22;64.37;101891.38;4915751;29;20060;-58
2022/07/08 10:31:21;;;;;;;14.93;2.78;;;;;;;18.25;63.64;101900.97;4933063;28;20075;-58
2022/07/08 10:33:49;;;;;;;11.20;2.38;;;;;;;18.35;63.53;101885.16;4933027;29;20067;-60
2022/07/08 10:36:20;;;;;;;17.20;2.72;;;;;;;18.64;63.78;101883.94;4925696;29;20147;-59
2022/07/08 10:38:48;;;;;;;11.15;2.53;;;;;;;19.04;62.30;101881.00;4931041;29;20068;-57
2022/07/08 10:41:25;;;;;;;12.32;2.22;;;;;;;19.07;61.46;101886.09;4934068;28;20048;-58
2022/07/08 10:44:00;;;;;;;15.85;2.53;;;;;;;19.03;61.43;101897.97;4940604;29;20511;-59
2022/07/08 10:46:27;;;;;;;9.57;2.75;;;;;;;19.17;60.80;101892.47;4932677;28;20066;-59
2022/07/08 10:48:56;;;;;;;11.13;2.33;;;;;;;19.17;61.17;101873.78;4931480;29;20063;-59
2022/07/08 10:51:29;;;;;;;12.23;2.33;;;;;;;19.12;60.07;101875.94;4929113;29;20055;-59
2022/07/08 10:54:08;;;;;;;8.82;1.75;;;;;;;19.29;58.17;101889.84;4924085;29;20075;-60
2022/07/08 10:56:48;;;;;;;11.00;2.35;;;;;;;18.95;58.63;101881.69;4937185;29;20539;-60
2022/07/08 10:59:19;;;;;;;21.10;3.00;;;;;;;18.37;59.53;101883.22;4926703;29;20055;-58
2022/07/08 11:01:58;;;;;;;13.90;2.30;;;;;;;18.66;59.99;101882.00;4921989;29;20059;-59
2022/07/08 11:04:26;;;;;;;19.25;3.03;;;;;;;19.25;57.91;101889.22;4930365;29;20050;-60
2022/07/08 11:06:56;;;;;;;8.75;1.85;;;;;;;19.30;57.16;101883.53;4936047;28;20099;-59
2022/07/08 11:09:23;;;;;;;8.45;1.98;;;;;;;19.42;56.68;101880.78;4929361;29;20063;-59
2022/07/08 11:11:50;;;;;;;8.43;2.08;;;;;;;19.75;55.41;101881.84;4917382;29;20906;-59
2022/07/08 11:14:18;;;;;;;12.90;2.30;;;;;;;19.70;55.78;101874.19;4941214;29;20047;-59
2022/07/08 11:16:45;;;;;;;13.68;2.17;;;;;;;19.71;55.01;101883.06;4939268;28;20077;-59
2022/07/08 11:19:12;;;;;;;11.52;2.20;;;;;;;19.88;54.67;101873.72;4941277;28;20055;-59
2022/07/08 11:21:40;;;;;;;10.13;2.28;;;;;;;20.33;54.07;101879.06;4923057;28;20535;-59
2022/07/08 11:24:28;;;;;;;11.82;2.40;;;;;;;20.48;52.84;101884.06;4923485;29;20074;-59
2022/07/08 11:26:55;;;;;;;14.82;2.30;;;;;;;20.88;52.50;101877.28;4941262;28;20059;-59